createdAt,value
2018-12-23T00:00:16.910Z,7.22
2018-12-23T00:01:16.959Z,7.25
2018-12-23T00:02:16.219Z,7.25
2018-12-23T00:03:16.483Z,7.25
2018-12-23T00:04:16.757Z,7.24
2018-12-23T00:05:16.012Z,7.23
2018-12-23T00:06:16.280Z,7.23
2018-12-23T00:07:16.542Z,7.24
2018-12-23T00:08:16.797Z,7.25
2018-12-23T00:09:16.071Z,7.28
2018-12-23T00:10:16.350Z,7.29
2018-12-23T00:11:16.638Z,7.30
2018-12-23T00:12:16.910Z,7.29
2018-12-23T00:13:16.170Z,7.30
2018-12-23T00:14:16.428Z,7.30
2018-12-23T00:15:16.701Z,7.27
2018-12-23T00:16:16.962Z,7.24
2018-12-23T00:17:16.225Z,7.22
2018-12-23T00:18:16.488Z,7.19
2018-12-23T00:19:16.755Z,7.19
2018-12-23T00:20:16.040Z,7.19
2018-12-23T00:21:16.071Z,7.16
2018-12-23T00:22:16.338Z,7.15
2018-12-23T00:23:16.610Z,7.14
2018-12-23T00:24:16.876Z,7.07
2018-12-23T00:25:16.136Z,7.08
2018-12-23T00:26:16.402Z,7.08
2018-12-23T00:27:16.665Z,7.05
2018-12-23T00:28:16.940Z,6.94
2018-12-23T00:29:16.214Z,6.91
2018-12-23T00:30:16.485Z,6.91
2018-12-23T00:31:16.546Z,6.85
2018-12-23T00:32:16.810Z,6.79
2018-12-23T00:33:16.070Z,6.75
2018-12-23T00:34:16.328Z,6.75
2018-12-23T00:35:20.367Z,6.84
2018-12-23T00:36:16.028Z,6.83
2018-12-23T00:37:16.303Z,6.84
2018-12-23T00:38:16.574Z,6.76
2018-12-23T00:39:16.840Z,6.63
2018-12-23T00:40:16.120Z,6.64
2018-12-23T00:41:16.157Z,6.74
2018-12-23T00:42:16.416Z,6.74
2018-12-23T00:43:16.675Z,6.76
2018-12-23T00:44:16.942Z,6.69
2018-12-23T00:45:16.212Z,6.61
2018-12-23T00:46:16.487Z,6.58
2018-12-23T00:47:16.770Z,6.49
2018-12-23T00:48:16.029Z,6.49
2018-12-23T00:49:16.287Z,6.57
2018-12-23T00:50:16.562Z,6.61
2018-12-23T00:51:16.606Z,6.41
2018-12-23T00:52:16.881Z,6.37
2018-12-23T00:53:16.141Z,6.64
2018-12-23T00:54:16.411Z,6.55
2018-12-23T00:55:16.701Z,6.55
2018-12-23T00:56:16.967Z,6.64
2018-12-23T00:57:16.247Z,6.67
2018-12-23T00:58:16.521Z,6.74
2018-12-23T00:59:16.777Z,6.72
2018-12-23T01:00:16.050Z,6.73
2018-12-23T01:01:16.134Z,6.75
2018-12-23T01:02:16.420Z,6.80
2018-12-23T01:03:16.684Z,6.81
2018-12-23T01:04:16.950Z,6.82
2018-12-23T01:05:16.219Z,6.84
2018-12-23T01:06:16.480Z,6.84
2018-12-23T01:07:16.744Z,6.88
2018-12-23T01:08:16.011Z,6.85
2018-12-23T01:09:16.297Z,6.79
2018-12-23T01:10:16.573Z,6.85
2018-12-23T01:11:16.610Z,6.90
2018-12-23T01:12:16.877Z,6.92
2018-12-23T01:13:16.136Z,6.95
2018-12-23T01:14:16.396Z,6.94
2018-12-23T01:15:16.656Z,6.97
2018-12-23T01:16:16.925Z,6.93
2018-12-23T01:17:16.200Z,6.87
2018-12-23T01:18:16.464Z,6.83
2018-12-23T01:19:16.716Z,6.83
2018-12-23T01:20:16.005Z,6.82
2018-12-23T01:21:16.022Z,6.83
2018-12-23T01:22:16.296Z,6.83
2018-12-23T01:23:16.567Z,6.86
2018-12-23T01:24:16.834Z,6.84
2018-12-23T01:25:16.102Z,6.80
2018-12-23T01:26:16.364Z,6.83
2018-12-23T01:27:16.633Z,6.76
2018-12-23T01:28:16.900Z,6.80
2018-12-23T01:29:16.169Z,6.79
2018-12-23T01:30:16.439Z,6.70
2018-12-23T01:31:16.487Z,6.74
2018-12-23T01:32:16.748Z,6.72
2018-12-23T01:33:16.011Z,6.74
2018-12-23T01:34:16.277Z,6.74
2018-12-23T01:35:16.547Z,6.69
2018-12-23T01:36:16.803Z,6.67
2018-12-23T01:37:16.076Z,6.61
2018-12-23T01:38:16.428Z,6.63
2018-12-23T01:39:16.692Z,6.57
2018-12-23T01:40:16.979Z,6.47
2018-12-23T01:41:16.027Z,6.51
2018-12-23T01:42:16.294Z,6.55
2018-12-23T01:43:16.560Z,6.52
2018-12-23T01:44:17.203Z,6.53
2018-12-23T01:45:16.595Z,6.45
2018-12-23T01:46:16.858Z,6.40
2018-12-23T01:47:16.116Z,6.36
2018-12-23T01:48:16.386Z,6.31
2018-12-23T01:49:16.648Z,6.17
2018-12-23T01:50:16.916Z,6.20
2018-12-23T01:51:16.999Z,6.20
2018-12-23T01:52:16.267Z,6.16
2018-12-23T01:53:16.538Z,6.16
2018-12-23T01:54:16.814Z,6.24
2018-12-23T01:55:16.068Z,6.24
2018-12-23T01:56:16.338Z,6.06
2018-12-23T01:57:16.623Z,6.00
2018-12-23T01:58:16.887Z,6.02
2018-12-23T01:59:16.149Z,6.00
2018-12-23T02:00:16.406Z,5.95
2018-12-23T02:01:16.478Z,5.91
2018-12-23T02:02:16.739Z,5.81
2018-12-23T02:03:16.012Z,5.79
2018-12-23T02:04:16.283Z,5.74
2018-12-23T02:05:16.549Z,5.81
2018-12-23T02:06:16.824Z,5.71
2018-12-23T02:07:16.091Z,5.77
2018-12-23T02:08:16.354Z,5.75
2018-12-23T02:09:16.615Z,5.74
2018-12-23T02:10:16.889Z,5.74
2018-12-23T02:11:16.933Z,5.65
2018-12-23T02:12:16.199Z,5.65
2018-12-23T02:13:16.462Z,5.61
2018-12-23T02:14:16.735Z,5.58
2018-12-23T02:15:16.009Z,5.57
2018-12-23T02:16:16.278Z,5.51
2018-12-23T02:17:16.535Z,5.51
2018-12-23T02:18:16.804Z,5.47
2018-12-23T02:19:16.067Z,5.47
2018-12-23T02:20:16.346Z,5.45
2018-12-23T02:21:16.397Z,5.44
2018-12-23T02:22:16.659Z,5.55
2018-12-23T02:23:17.250Z,5.52
2018-12-23T02:24:16.517Z,5.61
2018-12-23T02:25:16.790Z,5.71
2018-12-23T02:26:16.066Z,5.85
2018-12-23T02:27:16.335Z,5.91
2018-12-23T02:28:16.590Z,5.93
2018-12-23T02:29:16.847Z,6.02
2018-12-23T02:30:16.126Z,6.05
2018-12-23T02:31:16.181Z,6.10
2018-12-23T02:32:16.442Z,6.10
2018-12-23T02:33:16.706Z,6.06
2018-12-23T02:34:15.968Z,5.98
2018-12-23T02:35:16.236Z,5.98
2018-12-23T02:36:16.507Z,6.02
2018-12-23T02:37:16.776Z,6.03
2018-12-23T02:38:16.042Z,6.00
2018-12-23T02:39:16.321Z,5.99
2018-12-23T02:40:16.595Z,5.89
2018-12-23T02:41:16.627Z,5.88
2018-12-23T02:42:16.883Z,5.93
2018-12-23T02:43:16.149Z,5.96
2018-12-23T02:44:16.424Z,5.85
2018-12-23T02:45:16.682Z,5.82
2018-12-23T02:46:16.963Z,5.85
2018-12-23T02:47:16.221Z,5.89
2018-12-23T02:48:16.489Z,5.85
2018-12-23T02:49:16.757Z,5.78
2018-12-23T02:50:16.035Z,5.91
2018-12-23T02:51:16.088Z,5.92
2018-12-23T02:52:16.354Z,5.85
2018-12-23T02:53:16.630Z,5.77
2018-12-23T02:54:17.148Z,5.77
2018-12-23T02:55:16.425Z,5.74
2018-12-23T02:56:16.686Z,5.85
2018-12-23T02:57:16.951Z,5.88
2018-12-23T02:58:16.212Z,5.86
2018-12-23T02:59:16.482Z,5.92
2018-12-23T03:00:16.750Z,5.92
2018-12-23T03:01:16.812Z,5.92
2018-12-23T03:02:16.104Z,5.96
2018-12-23T03:03:16.369Z,5.99
2018-12-23T03:04:16.641Z,5.95
2018-12-23T03:05:16.925Z,5.93
2018-12-23T03:06:16.186Z,5.92
2018-12-23T03:07:16.456Z,5.99
2018-12-23T03:08:16.730Z,5.95
2018-12-23T03:09:16.000Z,5.95
2018-12-23T03:10:16.824Z,5.96
2018-12-23T03:11:16.322Z,6.03
2018-12-23T03:12:16.594Z,5.96
2018-12-23T03:13:16.874Z,6.06
2018-12-23T03:14:16.145Z,6.02
2018-12-23T03:15:16.423Z,6.02
2018-12-23T03:16:16.686Z,5.92
2018-12-23T03:17:16.953Z,5.99
2018-12-23T03:18:16.214Z,6.03
2018-12-23T03:19:16.482Z,6.09
2018-12-23T03:20:16.758Z,6.09
2018-12-23T03:21:16.779Z,6.09
2018-12-23T03:22:16.032Z,6.14
2018-12-23T03:23:16.296Z,6.09
2018-12-23T03:24:16.553Z,6.05
2018-12-23T03:25:16.819Z,6.09
2018-12-23T03:26:16.362Z,6.10
2018-12-23T03:27:16.644Z,6.12
2018-12-23T03:28:16.904Z,6.17
2018-12-23T03:29:16.171Z,6.06
2018-12-23T03:30:16.458Z,6.10
2018-12-23T03:31:16.509Z,6.08
2018-12-23T03:32:16.773Z,6.13
2018-12-23T03:33:16.070Z,6.13
2018-12-23T03:34:16.345Z,6.09
2018-12-23T03:35:16.625Z,6.10
2018-12-23T03:36:16.890Z,6.13
2018-12-23T03:37:16.147Z,6.09
2018-12-23T03:38:16.412Z,6.09
2018-12-23T03:39:16.674Z,6.02
2018-12-23T03:40:16.949Z,6.02
2018-12-23T03:41:16.132Z,6.14
2018-12-23T03:42:16.419Z,6.14
2018-12-23T03:43:16.684Z,6.10
2018-12-23T03:44:16.957Z,6.17
2018-12-23T03:45:16.221Z,6.24
2018-12-23T03:46:16.492Z,6.21
2018-12-23T03:47:16.773Z,6.17
2018-12-23T03:48:16.040Z,6.17
2018-12-23T03:49:16.307Z,6.02
2018-12-23T03:50:16.577Z,6.13
2018-12-23T03:51:16.621Z,6.13
2018-12-23T03:52:16.882Z,6.09
2018-12-23T03:53:16.153Z,6.12
2018-12-23T03:54:16.415Z,6.10
2018-12-23T03:55:16.680Z,6.02
2018-12-23T03:56:16.958Z,6.03
2018-12-23T03:57:16.226Z,6.00
2018-12-23T03:58:16.491Z,6.02
2018-12-23T03:59:16.760Z,6.06
2018-12-23T04:00:16.054Z,6.05
2018-12-23T04:01:16.511Z,6.09
2018-12-23T04:02:16.795Z,6.16
2018-12-23T04:03:16.074Z,6.14
2018-12-23T04:04:16.343Z,6.16
2018-12-23T04:05:16.614Z,6.12
2018-12-23T04:06:24.379Z,6.08
2018-12-23T04:07:16.364Z,6.08
2018-12-23T04:08:16.636Z,6.13
2018-12-23T04:09:16.905Z,6.10
2018-12-23T04:10:16.172Z,6.08
2018-12-23T04:11:16.232Z,6.08
2018-12-23T04:12:16.497Z,6.08
2018-12-23T04:13:16.771Z,6.06
2018-12-23T04:14:16.056Z,6.06
2018-12-23T04:15:16.339Z,6.14
2018-12-23T04:16:16.604Z,6.13
2018-12-23T04:17:16.879Z,6.08
2018-12-23T04:18:16.145Z,6.09
2018-12-23T04:19:16.410Z,6.10
2018-12-23T04:20:16.700Z,6.13
2018-12-23T04:21:16.749Z,6.10
2018-12-23T04:22:16.018Z,6.12
2018-12-23T04:23:16.314Z,6.08
2018-12-23T04:24:16.576Z,6.13
2018-12-23T04:25:16.847Z,6.05
2018-12-23T04:26:16.115Z,6.09
2018-12-23T04:27:16.377Z,6.08
2018-12-23T04:28:16.635Z,6.08
2018-12-23T04:29:16.891Z,6.05
2018-12-23T04:30:16.166Z,6.14
2018-12-23T04:31:16.205Z,6.12
2018-12-23T04:32:16.477Z,6.12
2018-12-23T04:33:16.735Z,6.14
2018-12-23T04:34:16.012Z,6.09
2018-12-23T04:35:16.271Z,6.06
2018-12-23T04:36:16.535Z,6.02
2018-12-23T04:37:16.798Z,5.93
2018-12-23T04:38:16.064Z,6.00
2018-12-23T04:39:16.323Z,6.00
2018-12-23T04:40:16.578Z,6.09
2018-12-23T04:41:16.640Z,6.11
2018-12-23T04:42:16.912Z,6.12
2018-12-23T04:43:16.195Z,6.15
2018-12-23T04:44:16.470Z,6.20
2018-12-23T04:45:16.736Z,6.19
2018-12-23T04:46:15.994Z,6.16
2018-12-23T04:47:16.262Z,6.14
2018-12-23T04:48:16.527Z,6.23
2018-12-23T04:49:16.794Z,6.21
2018-12-23T04:50:16.071Z,6.24
2018-12-23T04:51:16.125Z,6.13
2018-12-23T04:52:16.403Z,6.09
2018-12-23T04:53:16.663Z,6.05
2018-12-23T04:54:16.927Z,6.06
2018-12-23T04:55:16.197Z,6.09
2018-12-23T04:56:16.465Z,6.13
2018-12-23T04:57:16.726Z,6.05
2018-12-23T04:58:15.991Z,6.02
2018-12-23T04:59:16.266Z,6.05
2018-12-23T05:00:16.542Z,5.92
2018-12-23T05:01:16.599Z,5.86
2018-12-23T05:02:16.866Z,5.99
2018-12-23T05:03:16.142Z,6.04
2018-12-23T05:04:16.405Z,6.03
2018-12-23T05:05:16.674Z,6.01
2018-12-23T05:06:17.931Z,6.01
2018-12-23T05:07:16.305Z,5.95
2018-12-23T05:08:16.572Z,5.98
2018-12-23T05:09:16.843Z,5.97
2018-12-23T05:10:16.117Z,5.96
2018-12-23T05:11:16.183Z,5.88
2018-12-23T05:12:16.447Z,5.85
2018-12-23T05:13:16.715Z,5.79
2018-12-23T05:14:15.980Z,5.82
2018-12-23T05:15:16.254Z,5.89
2018-12-23T05:16:16.525Z,5.89
2018-12-23T05:17:16.794Z,5.81
2018-12-23T05:18:16.059Z,5.82
2018-12-23T05:19:16.330Z,5.88
2018-12-23T05:20:16.603Z,5.91
2018-12-23T05:21:16.647Z,5.85
2018-12-23T05:22:16.916Z,5.74
2018-12-23T05:23:16.177Z,5.74
2018-12-23T05:24:16.448Z,5.74
2018-12-23T05:25:16.735Z,5.67
2018-12-23T05:26:16.005Z,5.74
2018-12-23T05:27:16.269Z,5.79
2018-12-23T05:28:16.534Z,5.68
2018-12-23T05:29:16.812Z,5.72
2018-12-23T05:30:16.081Z,5.64
2018-12-23T05:31:16.144Z,5.68
2018-12-23T05:32:16.408Z,5.54
2018-12-23T05:33:16.673Z,5.74
2018-12-23T05:34:16.954Z,5.76
2018-12-23T05:35:16.243Z,5.73
2018-12-23T05:36:16.510Z,5.72
2018-12-23T05:37:16.775Z,5.69
2018-12-23T05:38:16.048Z,5.65
2018-12-23T05:39:16.325Z,5.66
2018-12-23T05:40:16.602Z,5.65
2018-12-23T05:41:16.635Z,5.50
2018-12-23T05:42:16.903Z,5.31
2018-12-23T05:43:16.171Z,5.28
2018-12-23T05:44:16.426Z,4.88
2018-12-23T05:45:16.693Z,4.71
2018-12-23T05:46:16.959Z,4.47
2018-12-23T05:47:16.238Z,4.16
2018-12-23T05:48:16.510Z,4.13
2018-12-23T05:49:16.770Z,4.06
2018-12-23T05:50:16.039Z,3.85
2018-12-23T05:51:16.082Z,3.74
2018-12-23T05:52:16.353Z,3.74
2018-12-23T05:53:16.617Z,3.58
2018-12-23T05:54:16.885Z,3.54
2018-12-23T05:55:16.148Z,3.65
2018-12-23T05:56:16.412Z,3.67
2018-12-23T05:57:16.681Z,3.55
2018-12-23T05:58:16.942Z,3.50
2018-12-23T05:59:16.477Z,3.50
2018-12-23T06:00:16.749Z,3.57
2018-12-23T06:01:16.813Z,3.58
2018-12-23T06:02:16.083Z,3.57
2018-12-23T06:03:16.343Z,3.57
2018-12-23T06:04:16.618Z,3.55
2018-12-23T06:05:16.900Z,3.57
2018-12-23T06:06:16.171Z,3.58
2018-12-23T06:07:16.445Z,3.57
2018-12-23T06:08:16.716Z,3.58
2018-12-23T06:09:15.974Z,3.57
2018-12-23T06:10:16.243Z,3.51
2018-12-23T06:11:16.379Z,3.47
2018-12-23T06:12:16.649Z,3.46
2018-12-23T06:13:16.915Z,3.46
2018-12-23T06:14:16.189Z,3.51
2018-12-23T06:15:16.450Z,3.54
2018-12-23T06:16:16.708Z,3.51
2018-12-23T06:17:16.972Z,3.46
2018-12-23T06:18:16.240Z,3.57
2018-12-23T06:19:16.513Z,3.62
2018-12-23T06:20:16.791Z,3.53
2018-12-23T06:21:16.813Z,3.53
2018-12-23T06:22:16.079Z,3.58
2018-12-23T06:23:16.436Z,3.58
2018-12-23T06:24:16.716Z,3.81
2018-12-23T06:25:15.974Z,4.17
2018-12-23T06:26:16.244Z,4.26
2018-12-23T06:27:16.520Z,4.87
2018-12-23T06:28:16.786Z,5.06
2018-12-23T06:29:16.052Z,5.31
2018-12-23T06:30:16.330Z,5.41
2018-12-23T06:31:16.378Z,5.50
2018-12-23T06:32:16.639Z,5.54
2018-12-23T06:33:16.900Z,5.60
2018-12-23T06:34:16.161Z,5.61
2018-12-23T06:35:16.456Z,5.84
2018-12-23T06:36:16.749Z,5.82
2018-12-23T06:37:16.016Z,5.91
2018-12-23T06:38:16.318Z,5.93
2018-12-23T06:39:16.586Z,5.86
2018-12-23T06:40:16.864Z,5.89
2018-12-23T06:41:16.917Z,5.88
2018-12-23T06:42:16.172Z,5.89
2018-12-23T06:43:16.431Z,5.85
2018-12-23T06:44:16.702Z,5.84
2018-12-23T06:45:16.970Z,5.84
2018-12-23T06:46:16.232Z,5.88
2018-12-23T06:47:16.504Z,5.79
2018-12-23T06:48:16.761Z,5.78
2018-12-23T06:49:16.031Z,5.84
2018-12-23T06:50:16.307Z,5.92
2018-12-23T06:51:16.355Z,6.08
2018-12-23T06:52:16.617Z,6.08
2018-12-23T06:53:16.903Z,6.05
2018-12-23T06:54:16.164Z,6.12
2018-12-23T06:55:16.435Z,6.14
2018-12-23T06:56:16.696Z,6.17
2018-12-23T06:57:16.965Z,6.26
2018-12-23T06:58:16.226Z,6.14
2018-12-23T06:59:16.484Z,6.16
2018-12-23T07:00:16.755Z,6.13
2018-12-23T07:01:16.826Z,6.10
2018-12-23T07:02:16.087Z,6.16
2018-12-23T07:03:16.356Z,6.19
2018-12-23T07:04:16.622Z,6.21
2018-12-23T07:05:16.880Z,6.27
2018-12-23T07:06:16.145Z,6.30
2018-12-23T07:07:18.671Z,6.36
2018-12-23T07:08:16.355Z,6.33
2018-12-23T07:09:16.616Z,6.30
2018-12-23T07:10:16.888Z,6.30
2018-12-23T07:11:16.941Z,6.24
2018-12-23T07:12:16.203Z,6.26
2018-12-23T07:13:16.457Z,6.26
2018-12-23T07:14:16.724Z,6.20
2018-12-23T07:15:15.995Z,6.19
2018-12-23T07:16:16.574Z,6.17
2018-12-23T07:17:16.840Z,6.23
2018-12-23T07:18:16.102Z,6.27
2018-12-23T07:19:16.375Z,6.26
2018-12-23T07:20:16.652Z,6.29
2018-12-23T07:21:16.689Z,6.34
2018-12-23T07:22:16.961Z,6.34
2018-12-23T07:23:16.222Z,6.29
2018-12-23T07:24:16.494Z,6.36
2018-12-23T07:25:16.760Z,6.27
2018-12-23T07:26:16.026Z,6.30
2018-12-23T07:27:16.298Z,6.26
2018-12-23T07:28:16.558Z,6.21
2018-12-23T07:29:16.831Z,6.23
2018-12-23T07:30:16.099Z,6.19
2018-12-23T07:31:16.144Z,6.19
2018-12-23T07:32:16.404Z,6.24
2018-12-23T07:33:16.662Z,6.24
2018-12-23T07:34:16.942Z,6.33
2018-12-23T07:35:16.231Z,6.31
2018-12-23T07:36:16.497Z,6.34
2018-12-23T07:37:16.751Z,6.34
2018-12-23T07:38:16.014Z,6.29
2018-12-23T07:39:16.282Z,6.34
2018-12-23T07:40:16.559Z,6.37
2018-12-23T07:41:16.627Z,6.45
2018-12-23T07:42:16.897Z,6.40
2018-12-23T07:43:16.172Z,6.40
2018-12-23T07:44:16.437Z,6.41
2018-12-23T07:45:16.706Z,6.38
2018-12-23T07:46:16.973Z,6.34
2018-12-23T07:47:16.243Z,6.47
2018-12-23T07:48:16.506Z,6.45
2018-12-23T07:49:16.762Z,6.45
2018-12-23T07:50:16.026Z,6.48
2018-12-23T07:51:16.091Z,6.51
2018-12-23T07:52:16.353Z,6.45
2018-12-23T07:53:16.616Z,6.43
2018-12-23T07:54:16.891Z,6.52
2018-12-23T07:55:16.161Z,6.54
2018-12-23T07:56:16.432Z,6.54
2018-12-23T07:57:16.690Z,6.51
2018-12-23T07:58:16.964Z,6.54
2018-12-23T07:59:16.226Z,6.57
2018-12-23T08:00:16.497Z,6.59
2018-12-23T08:01:16.583Z,6.61
2018-12-23T08:02:17.110Z,6.61
2018-12-23T08:03:16.368Z,6.54
2018-12-23T08:04:16.638Z,6.54
2018-12-23T08:05:16.911Z,6.51
2018-12-23T08:06:16.174Z,6.54
2018-12-23T08:07:16.447Z,6.58
2018-12-23T08:08:16.722Z,6.58
2018-12-23T08:09:15.977Z,6.63
2018-12-23T08:10:16.244Z,6.72
2018-12-23T08:11:16.313Z,6.69
2018-12-23T08:12:16.577Z,6.67
2018-12-23T08:13:16.833Z,6.64
2018-12-23T08:14:16.101Z,6.68
2018-12-23T08:15:16.370Z,6.71
2018-12-23T08:16:16.631Z,6.74
2018-12-23T08:17:16.896Z,6.71
2018-12-23T08:18:16.162Z,6.74
2018-12-23T08:19:16.434Z,6.79
2018-12-23T08:20:16.767Z,6.76
2018-12-23T08:21:16.765Z,6.75
2018-12-23T08:22:16.039Z,6.84
2018-12-23T08:23:16.634Z,6.82
2018-12-23T08:24:16.904Z,6.79
2018-12-23T08:25:16.174Z,6.81
2018-12-23T08:26:16.445Z,6.86
2018-12-23T08:27:16.711Z,6.86
2018-12-23T08:28:15.970Z,6.89
2018-12-23T08:29:16.240Z,6.91
2018-12-23T08:30:16.518Z,6.89
2018-12-23T08:31:16.545Z,6.91
2018-12-23T08:32:16.812Z,6.89
2018-12-23T08:33:16.089Z,6.88
2018-12-23T08:34:16.362Z,7.00
2018-12-23T08:35:16.638Z,7.00
2018-12-23T08:36:16.905Z,7.00
2018-12-23T08:37:16.165Z,7.22
2018-12-23T08:38:16.436Z,7.19
2018-12-23T08:39:16.707Z,7.20
2018-12-23T08:40:16.987Z,7.17
2018-12-23T08:41:16.033Z,7.16
2018-12-23T08:42:16.291Z,7.16
2018-12-23T08:43:16.561Z,7.19
2018-12-23T08:44:16.827Z,7.20
2018-12-23T08:45:16.093Z,7.27
2018-12-23T08:46:16.356Z,7.29
2018-12-23T08:47:16.626Z,7.24
2018-12-23T08:48:16.897Z,7.27
2018-12-23T08:49:16.149Z,7.27
2018-12-23T08:50:16.426Z,7.26
2018-12-23T08:51:16.506Z,7.30
2018-12-23T08:52:16.773Z,7.30
2018-12-23T08:53:16.053Z,7.38
2018-12-23T08:54:16.318Z,7.37
2018-12-23T08:55:16.598Z,7.38
2018-12-23T08:56:16.859Z,7.44
2018-12-23T08:57:16.125Z,7.47
2018-12-23T08:58:16.397Z,7.53
2018-12-23T08:59:16.671Z,7.59
2018-12-23T09:00:16.939Z,7.58
2018-12-23T09:01:15.998Z,7.61
2018-12-23T09:02:16.261Z,7.65
2018-12-23T09:03:18.900Z,7.64
2018-12-23T09:04:16.485Z,7.61
2018-12-23T09:05:16.750Z,7.65
2018-12-23T09:06:16.008Z,7.65
2018-12-23T09:07:16.271Z,7.72
2018-12-23T09:08:16.540Z,7.65
2018-12-23T09:09:16.805Z,7.68
2018-12-23T09:10:16.074Z,7.74
2018-12-23T09:11:16.364Z,7.72
2018-12-23T09:12:16.631Z,7.72
2018-12-23T09:13:16.918Z,7.74
2018-12-23T09:14:16.193Z,7.80
2018-12-23T09:15:16.470Z,7.80
2018-12-23T09:16:17.996Z,7.80
2018-12-23T09:17:16.411Z,7.80
2018-12-23T09:18:19.376Z,7.77
2018-12-23T09:19:15.973Z,7.82
2018-12-23T09:20:16.257Z,7.86
2018-12-23T09:21:16.307Z,7.88
2018-12-23T09:22:16.570Z,7.89
2018-12-23T09:23:16.839Z,7.85
2018-12-23T09:24:16.111Z,7.86
2018-12-23T09:25:16.378Z,7.86
2018-12-23T09:26:16.643Z,7.88
2018-12-23T09:27:16.900Z,7.89
2018-12-23T09:28:16.177Z,7.89
2018-12-23T09:29:16.452Z,7.91
2018-12-23T09:30:16.724Z,7.95
2018-12-23T09:31:16.751Z,7.93
2018-12-23T09:32:16.018Z,7.95
2018-12-23T09:33:16.280Z,7.92
2018-12-23T09:34:16.542Z,7.96
2018-12-23T09:35:16.812Z,7.96
2018-12-23T09:36:16.075Z,7.93
2018-12-23T09:37:16.355Z,8.00
2018-12-23T09:38:16.616Z,8.00
2018-12-23T09:39:16.886Z,7.99
2018-12-23T09:40:16.160Z,8.00
2018-12-23T09:41:16.221Z,7.99
2018-12-23T09:42:16.500Z,7.99
2018-12-23T09:43:16.761Z,7.99
2018-12-23T09:44:16.033Z,8.02
2018-12-23T09:45:16.296Z,7.98
2018-12-23T09:46:16.563Z,7.98
2018-12-23T09:47:16.829Z,7.98
2018-12-23T09:48:16.093Z,7.92
2018-12-23T09:49:16.354Z,7.93
2018-12-23T09:50:16.625Z,7.82
2018-12-23T09:51:16.651Z,7.84
2018-12-23T09:52:16.915Z,7.82
2018-12-23T09:53:16.183Z,7.86
2018-12-23T09:54:16.449Z,7.82
2018-12-23T09:55:16.711Z,7.86
2018-12-23T09:56:15.972Z,7.78
2018-12-23T09:57:16.230Z,7.75
2018-12-23T09:58:16.501Z,7.78
2018-12-23T09:59:16.777Z,7.81
2018-12-23T10:00:16.047Z,7.78
2018-12-23T10:01:16.098Z,7.77
2018-12-23T10:02:16.370Z,7.78
2018-12-23T10:03:16.634Z,7.74
2018-12-23T10:04:16.916Z,7.75
2018-12-23T10:05:16.188Z,7.80
2018-12-23T10:06:16.456Z,7.81
2018-12-23T10:07:16.719Z,7.80
2018-12-23T10:08:15.984Z,7.82
2018-12-23T10:09:16.243Z,7.84
2018-12-23T10:10:16.523Z,7.82
2018-12-23T10:11:16.573Z,7.85
2018-12-23T10:12:16.835Z,7.88
2018-12-23T10:13:16.101Z,7.89
2018-12-23T10:14:16.367Z,7.92
2018-12-23T10:15:16.643Z,7.95
2018-12-23T10:16:16.899Z,7.99
2018-12-23T10:17:16.160Z,8.00
2018-12-23T10:18:16.429Z,8.03
2018-12-23T10:19:16.690Z,8.03
2018-12-23T10:20:16.958Z,8.05
2018-12-23T10:21:16.032Z,8.09
2018-12-23T10:22:16.308Z,8.09
2018-12-23T10:23:16.580Z,8.13
2018-12-23T10:24:16.850Z,8.16
2018-12-23T10:25:16.134Z,8.16
2018-12-23T10:26:16.406Z,8.17
2018-12-23T10:27:16.662Z,8.19
2018-12-23T10:28:16.927Z,8.19
2018-12-23T10:29:16.186Z,8.19
2018-12-23T10:30:16.469Z,8.17
2018-12-23T10:31:16.515Z,8.17
2018-12-23T10:32:16.784Z,8.19
2018-12-23T10:33:16.044Z,8.20
2018-12-23T10:34:16.309Z,8.20
2018-12-23T10:35:16.571Z,8.14
2018-12-23T10:36:16.832Z,8.13
2018-12-23T10:37:16.108Z,8.16
2018-12-23T10:38:18.398Z,8.13
2018-12-23T10:39:16.946Z,8.12
2018-12-23T10:40:16.229Z,8.13
2018-12-23T10:41:16.253Z,8.16
2018-12-23T10:42:16.512Z,8.17
2018-12-23T10:43:16.783Z,8.13
2018-12-23T10:44:16.038Z,8.14
2018-12-23T10:45:16.311Z,8.17
2018-12-23T10:46:16.578Z,8.14
2018-12-23T10:47:16.853Z,8.14
2018-12-23T10:48:16.122Z,8.16
2018-12-23T10:49:16.382Z,8.16
2018-12-23T10:50:16.652Z,8.17
2018-12-23T10:51:16.700Z,8.19
2018-12-23T10:52:16.959Z,8.20
2018-12-23T10:53:16.224Z,8.23
2018-12-23T10:54:16.480Z,8.24
2018-12-23T10:55:16.755Z,8.29
2018-12-23T10:56:16.020Z,8.30
2018-12-23T10:57:16.280Z,8.27
2018-12-23T10:58:16.549Z,8.30
2018-12-23T10:59:16.807Z,8.33
2018-12-23T11:00:16.092Z,8.34
2018-12-23T11:01:16.130Z,8.37
2018-12-23T11:02:16.391Z,8.36
2018-12-23T11:03:16.969Z,8.34
2018-12-23T11:04:16.230Z,8.34
2018-12-23T11:05:16.487Z,8.36
2018-12-23T11:06:16.742Z,8.40
2018-12-23T11:07:16.007Z,8.39
2018-12-23T11:08:16.273Z,8.41
2018-12-23T11:09:16.539Z,8.44
2018-12-23T11:10:16.811Z,8.50
2018-12-23T11:11:16.856Z,8.50
2018-12-23T11:12:16.126Z,8.50
2018-12-23T11:13:16.388Z,8.47
2018-12-23T11:14:16.653Z,8.52
2018-12-23T11:15:16.921Z,8.55
2018-12-23T11:16:18.276Z,8.52
2018-12-23T11:17:16.671Z,8.54
2018-12-23T11:18:16.954Z,8.55
2018-12-23T11:19:16.230Z,8.62
2018-12-23T11:20:16.507Z,8.58
2018-12-23T11:21:16.571Z,8.64
2018-12-23T11:22:16.834Z,8.58
2018-12-23T11:23:16.090Z,8.62
2018-12-23T11:24:16.362Z,8.61
2018-12-23T11:25:16.620Z,8.61
2018-12-23T11:26:16.880Z,8.61
2018-12-23T11:27:16.143Z,8.68
2018-12-23T11:28:16.401Z,8.65
2018-12-23T11:29:16.669Z,8.64
2018-12-23T11:30:16.955Z,8.67
2018-12-23T11:31:15.976Z,8.67
2018-12-23T11:32:16.232Z,8.67
2018-12-23T11:33:16.500Z,8.69
2018-12-23T11:34:16.768Z,8.68
2018-12-23T11:35:16.034Z,8.67
2018-12-23T11:36:16.302Z,8.71
2018-12-23T11:37:16.572Z,8.71
2018-12-23T11:38:17.262Z,8.69
2018-12-23T11:39:16.600Z,8.69
2018-12-23T11:40:16.886Z,8.69
2018-12-23T11:41:16.903Z,8.67
2018-12-23T11:42:16.179Z,8.65
2018-12-23T11:43:16.455Z,8.68
2018-12-23T11:44:16.726Z,8.69
2018-12-23T11:45:15.997Z,8.67
2018-12-23T11:46:16.263Z,8.69
2018-12-23T11:47:16.532Z,8.68
2018-12-23T11:48:16.805Z,8.68
2018-12-23T11:49:16.079Z,8.67
2018-12-23T11:50:16.345Z,8.69
2018-12-23T11:51:16.388Z,8.68
2018-12-23T11:52:16.649Z,8.65
2018-12-23T11:53:16.914Z,8.74
2018-12-23T11:54:16.173Z,8.71
2018-12-23T11:55:16.490Z,8.69
2018-12-23T11:56:16.749Z,8.72
2018-12-23T11:57:16.016Z,8.72
2018-12-23T11:58:16.293Z,8.69
2018-12-23T11:59:16.565Z,8.71
2018-12-23T12:00:16.861Z,8.72
2018-12-23T12:01:16.873Z,8.72
2018-12-23T12:02:16.145Z,8.75
2018-12-23T12:03:16.409Z,8.75
2018-12-23T12:04:16.681Z,8.75
2018-12-23T12:05:16.947Z,8.76
2018-12-23T12:06:16.214Z,8.72
2018-12-23T12:07:16.473Z,8.79
2018-12-23T12:08:16.756Z,8.76
2018-12-23T12:09:16.020Z,8.75
2018-12-23T12:10:16.279Z,8.76
2018-12-23T12:11:16.340Z,8.78
2018-12-23T12:12:16.599Z,8.82
2018-12-23T12:13:16.861Z,8.82
2018-12-23T12:14:16.171Z,8.82
2018-12-23T12:15:16.456Z,8.84
2018-12-23T12:16:16.729Z,8.85
2018-12-23T12:17:16.000Z,8.85
2018-12-23T12:18:16.262Z,8.85
2018-12-23T12:19:16.525Z,8.78
2018-12-23T12:20:16.805Z,8.85
2018-12-23T12:21:16.838Z,8.87
2018-12-23T12:22:16.096Z,8.84
2018-12-23T12:23:16.364Z,8.87
2018-12-23T12:24:16.629Z,8.87
2018-12-23T12:25:16.892Z,8.86
2018-12-23T12:26:16.160Z,8.92
2018-12-23T12:27:16.422Z,8.86
2018-12-23T12:28:16.686Z,8.84
2018-12-23T12:29:16.949Z,8.84
2018-12-23T12:30:16.240Z,8.86
2018-12-23T12:31:16.288Z,8.85
2018-12-23T12:32:16.563Z,8.86
2018-12-23T12:33:16.822Z,8.88
2018-12-23T12:34:16.080Z,8.91
2018-12-23T12:35:16.353Z,8.92
2018-12-23T12:36:16.618Z,8.91
2018-12-23T12:37:16.877Z,8.92
2018-12-23T12:38:16.145Z,8.92
2018-12-23T12:39:16.408Z,8.94
2018-12-23T12:40:16.689Z,8.94
2018-12-23T12:41:16.744Z,8.96
2018-12-23T12:42:16.016Z,8.95
2018-12-23T12:43:16.279Z,8.96
2018-12-23T12:44:16.542Z,8.95
2018-12-23T12:45:16.808Z,8.99
2018-12-23T12:46:16.067Z,8.98
2018-12-23T12:47:16.339Z,8.98
2018-12-23T12:48:16.605Z,8.89
2018-12-23T12:49:16.866Z,8.91
2018-12-23T12:50:16.139Z,8.99
2018-12-23T12:51:16.172Z,9.00
2018-12-23T12:52:16.444Z,9.00
2018-12-23T12:53:16.704Z,8.99
2018-12-23T12:54:16.958Z,8.96
2018-12-23T12:55:16.232Z,8.98
2018-12-23T12:56:16.500Z,8.99
2018-12-23T12:57:16.763Z,8.98
2018-12-23T12:58:16.023Z,8.99
2018-12-23T12:59:16.294Z,8.98
2018-12-23T13:00:16.594Z,8.98
2018-12-23T13:01:16.611Z,8.91
2018-12-23T13:02:16.878Z,8.94
2018-12-23T13:03:16.194Z,8.96
2018-12-23T13:04:16.472Z,8.98
2018-12-23T13:05:16.769Z,8.94
2018-12-23T13:06:16.034Z,8.96
2018-12-23T13:07:16.311Z,8.99
2018-12-23T13:08:16.582Z,8.94
2018-12-23T13:09:16.845Z,8.96
2018-12-23T13:10:16.132Z,8.95
2018-12-23T13:11:16.174Z,8.91
2018-12-23T13:12:16.434Z,8.89
2018-12-23T13:13:16.690Z,8.88
2018-12-23T13:14:16.963Z,8.89
2018-12-23T13:15:16.230Z,8.86
2018-12-23T13:16:16.494Z,8.84
2018-12-23T13:17:16.771Z,8.76
2018-12-23T13:18:16.041Z,8.76